createdAt,value
2023-02-09T00:01:16.410Z,21.90
2023-02-09T00:03:43.653Z,22.75
2023-02-09T00:06:12.544Z,22.38
2023-02-09T00:08:39.773Z,21.88
2023-02-09T00:11:11.403Z,23.40
2023-02-09T00:13:38.692Z,22.20
2023-02-09T00:16:06.178Z,23.40
2023-02-09T00:18:33.812Z,22.75
2023-02-09T00:21:00.924Z,23.58
2023-02-09T00:23:28.692Z,22.08
2023-02-09T00:25:55.901Z,22.23
2023-02-09T00:28:23.116Z,23.73
2023-02-09T00:30:50.374Z,22.52
2023-02-09T00:33:17.545Z,20.70
2023-02-09T00:35:44.839Z,22.73
2023-02-09T00:38:12.329Z,21.95
2023-02-09T00:40:39.714Z,22.60
2023-02-09T00:43:07.001Z,23.15
2023-02-09T00:45:34.203Z,23.33
2023-02-09T00:48:01.432Z,22.55
2023-02-09T00:50:28.746Z,23.50
2023-02-09T00:52:55.973Z,22.75
2023-02-09T00:55:23.257Z,22.53
2023-02-09T00:57:50.386Z,23.25
2023-02-09T01:00:17.715Z,24.50
2023-02-09T01:02:44.874Z,21.83
2023-02-09T01:05:12.002Z,22.70
2023-02-09T01:07:39.153Z,23.45
2023-02-09T01:10:06.511Z,23.30
2023-02-09T01:12:33.840Z,22.15
2023-02-09T01:15:02.138Z,22.30
2023-02-09T01:17:29.546Z,22.92
2023-02-09T01:19:56.850Z,23.38
2023-02-09T01:22:24.007Z,22.20
2023-02-09T01:24:51.169Z,21.90
2023-02-09T01:27:18.621Z,23.42
2023-02-09T01:29:45.961Z,22.02
2023-02-09T01:32:13.153Z,23.98
2023-02-09T01:34:40.342Z,23.15
2023-02-09T01:37:07.654Z,23.92
2023-02-09T01:39:34.818Z,22.63
2023-02-09T01:42:03.573Z,22.00
2023-02-09T01:44:30.732Z,22.98
2023-02-09T01:46:57.925Z,22.63
2023-02-09T01:49:28.749Z,24.15
2023-02-09T01:52:00.551Z,22.70
2023-02-09T01:54:42.133Z,22.48
2023-02-09T01:57:11.468Z,23.58
2023-02-09T01:59:39.480Z,22.92
2023-02-09T02:02:07.024Z,24.52
2023-02-09T02:04:34.656Z,23.73
2023-02-09T02:07:07.884Z,23.08
2023-02-09T02:09:35.097Z,22.67
2023-02-09T02:12:02.222Z,23.40
2023-02-09T02:14:33.688Z,23.00
2023-02-09T02:17:10.731Z,23.40
2023-02-09T02:20:04.849Z,23.73
2023-02-09T02:22:36.575Z,23.85
2023-02-09T02:25:03.714Z,23.20
2023-02-09T02:27:31.626Z,23.70
2023-02-09T02:30:06.805Z,23.33
2023-02-09T02:32:54.298Z,23.90
2023-02-09T02:35:36.628Z,21.35
2023-02-09T02:38:06.446Z,22.52
2023-02-09T02:40:36.688Z,24.08
2023-02-09T02:43:09.525Z,23.13
2023-02-09T02:45:52.218Z,23.35
2023-02-09T02:48:22.047Z,23.25
2023-02-09T02:50:51.340Z,24.15
2023-02-09T02:53:18.528Z,23.33
2023-02-09T02:55:45.796Z,22.88
2023-02-09T02:58:12.967Z,24.17
2023-02-09T03:00:45.075Z,23.70
2023-02-09T03:03:14.111Z,23.15
2023-02-09T03:05:41.395Z,22.13
2023-02-09T03:08:08.606Z,23.73
2023-02-09T03:10:36.783Z,23.30
2023-02-09T03:13:16.212Z,23.08
2023-02-09T03:15:46.276Z,23.33
2023-02-09T03:18:31.938Z,23.50
2023-02-09T03:21:05.448Z,23.80
2023-02-09T03:23:33.886Z,23.88
2023-02-09T03:26:02.536Z,24.80
2023-02-09T03:28:30.499Z,23.13
2023-02-09T03:30:58.114Z,23.10
2023-02-09T03:33:26.006Z,24.13
2023-02-09T03:35:54.399Z,23.45
2023-02-09T03:38:21.541Z,23.92
2023-02-09T03:40:48.738Z,23.95
2023-02-09T03:43:15.872Z,24.63
2023-02-09T03:45:43.044Z,23.25
2023-02-09T03:48:10.184Z,25.65
2023-02-09T03:50:37.481Z,24.75
2023-02-09T03:53:07.802Z,25.05
2023-02-09T03:55:35.789Z,23.73
2023-02-09T03:58:02.970Z,25.00
2023-02-09T04:00:30.179Z,24.03
2023-02-09T04:02:59.354Z,25.48
2023-02-09T04:05:26.513Z,25.52
2023-02-09T04:07:53.648Z,24.85
2023-02-09T04:10:20.887Z,23.67
2023-02-09T04:12:48.231Z,23.58
2023-02-09T04:15:15.413Z,25.88
2023-02-09T04:17:42.591Z,24.38
2023-02-09T04:20:09.887Z,24.85
2023-02-09T04:22:37.027Z,24.63
2023-02-09T04:25:04.226Z,25.40
2023-02-09T04:27:31.565Z,23.67
2023-02-09T04:29:58.708Z,25.75
2023-02-09T04:32:25.859Z,26.13
2023-02-09T04:34:53.017Z,25.98
2023-02-09T04:37:20.164Z,25.55
2023-02-09T04:39:47.314Z,25.13
2023-02-09T04:42:14.466Z,24.20
2023-02-09T04:44:41.647Z,26.95
2023-02-09T04:47:08.911Z,26.02
2023-02-09T04:49:36.099Z,25.88
2023-02-09T04:52:03.228Z,25.35
2023-02-09T04:54:30.374Z,23.95
2023-02-09T04:57:16.464Z,25.70
2023-02-09T04:59:44.977Z,24.95
2023-02-09T05:02:12.247Z,24.73
2023-02-09T05:04:39.407Z,24.98
2023-02-09T05:07:06.608Z,26.58
2023-02-09T05:09:33.775Z,26.35
2023-02-09T05:12:01.171Z,24.92
2023-02-09T05:14:28.399Z,26.33
2023-02-09T05:16:55.608Z,26.17
2023-02-09T05:19:22.787Z,25.15
2023-02-09T05:21:49.943Z,25.73
2023-02-09T05:24:17.096Z,26.35
2023-02-09T05:26:44.224Z,25.65
2023-02-09T05:29:11.475Z,24.92
2023-02-09T05:31:38.873Z,25.92
2023-02-09T05:34:06.089Z,26.95
2023-02-09T05:36:33.257Z,24.88
2023-02-09T05:39:00.378Z,26.33
2023-02-09T05:41:47.060Z,25.95
2023-02-09T05:44:14.218Z,25.23
2023-02-09T05:46:41.463Z,25.37
2023-02-09T05:49:08.658Z,26.42
2023-02-09T05:51:36.903Z,25.38
2023-02-09T05:54:04.210Z,27.40
2023-02-09T05:56:31.410Z,24.52
2023-02-09T05:58:58.666Z,27.20
2023-02-09T06:01:25.823Z,25.77
2023-02-09T06:03:53.031Z,27.08
2023-02-09T06:06:20.193Z,25.88
2023-02-09T06:08:47.386Z,26.70
2023-02-09T06:11:15.121Z,24.83
2023-02-09T06:13:42.250Z,25.70
2023-02-09T06:16:09.500Z,25.88
2023-02-09T06:18:38.193Z,26.33
2023-02-09T06:21:05.791Z,24.73
2023-02-09T06:23:35.143Z,25.50
2023-02-09T06:26:06.236Z,26.23
2023-02-09T06:28:33.455Z,25.33
2023-02-09T06:31:00.896Z,24.93
2023-02-09T06:33:28.080Z,25.33
2023-02-09T06:35:55.232Z,24.92
2023-02-09T06:38:22.456Z,25.02
2023-02-09T06:40:49.599Z,26.20
2023-02-09T06:43:16.836Z,26.52
2023-02-09T06:45:43.673Z,25.45
2023-02-09T06:48:10.513Z,24.92
2023-02-09T06:50:38.135Z,25.92
2023-02-09T06:53:05.115Z,25.75
2023-02-09T06:55:32.245Z,26.08
2023-02-09T06:57:59.162Z,26.45
2023-02-09T07:00:26.092Z,25.55
2023-02-09T07:02:53.503Z,25.60
2023-02-09T07:05:20.396Z,26.33
2023-02-09T07:07:47.224Z,25.75
2023-02-09T07:10:14.866Z,24.83
2023-02-09T07:12:43.419Z,27.35
2023-02-09T07:15:10.699Z,24.95
2023-02-09T07:17:37.506Z,23.55
2023-02-09T07:20:05.094Z,24.80
2023-02-09T07:22:32.267Z,24.65
2023-02-09T07:24:59.437Z,24.42
2023-02-09T07:27:26.663Z,24.50
2023-02-09T07:29:53.828Z,24.88
2023-02-09T07:32:22.823Z,24.05
2023-02-09T07:34:50.190Z,24.45
2023-02-09T07:37:17.382Z,23.73
2023-02-09T07:39:44.786Z,24.17
2023-02-09T07:42:12.157Z,23.98
2023-02-09T07:44:40.353Z,23.00
2023-02-09T07:47:07.524Z,24.33
2023-02-09T07:49:37.642Z,23.23
2023-02-09T07:52:05.325Z,23.00
2023-02-09T07:54:32.561Z,22.97
2023-02-09T07:56:59.729Z,24.67
2023-02-09T07:59:26.944Z,24.40
2023-02-09T08:01:54.172Z,25.13
2023-02-09T08:04:22.013Z,23.50
2023-02-09T08:06:50.272Z,23.23
2023-02-09T08:09:17.473Z,22.75
2023-02-09T08:11:46.704Z,22.73
2023-02-09T08:14:15.002Z,22.30
2023-02-09T08:16:42.264Z,21.27
2023-02-09T08:19:11.160Z,21.33
2023-02-09T08:21:39.188Z,21.83
2023-02-09T08:24:06.831Z,22.08
2023-02-09T08:26:34.023Z,19.65
2023-02-09T08:29:01.210Z,19.88
2023-02-09T08:31:28.421Z,19.83
2023-02-09T08:33:55.611Z,20.38
2023-02-09T08:36:22.848Z,20.87
2023-02-09T08:38:50.326Z,20.20
2023-02-09T08:41:17.659Z,19.17
2023-02-09T08:43:51.606Z,19.73
2023-02-09T08:46:19.028Z,18.90
2023-02-09T08:48:46.759Z,17.55
2023-02-09T08:51:14.243Z,19.83
2023-02-09T08:53:41.715Z,18.83
2023-02-09T08:56:08.930Z,22.40
2023-02-09T08:58:36.598Z,19.95
2023-02-09T09:01:04.176Z,24.20
2023-02-09T09:03:33.272Z,19.33
2023-02-09T09:06:06.444Z,26.63
2023-02-09T09:08:33.965Z,19.08
2023-02-09T09:11:01.309Z,26.45
2023-02-09T09:13:28.601Z,21.27
2023-02-09T09:15:55.887Z,16.67
2023-02-09T09:18:24.174Z,17.73
2023-02-09T09:20:51.418Z,17.73
2023-02-09T09:23:18.684Z,18.80
2023-02-09T09:25:46.124Z,16.58
2023-02-09T09:28:13.576Z,16.98
2023-02-09T09:30:40.742Z,16.65
2023-02-09T09:33:07.955Z,16.63
2023-02-09T09:35:35.096Z,16.50
2023-02-09T09:38:02.325Z,16.40
2023-02-09T09:40:33.225Z,15.37
2023-02-09T09:43:03.024Z,15.95
2023-02-09T09:45:30.627Z,16.15
2023-02-09T09:47:57.793Z,17.00
2023-02-09T09:50:37.277Z,16.23
2023-02-09T09:53:06.337Z,15.93
2023-02-09T09:55:33.489Z,15.73
2023-02-09T09:58:01.560Z,16.05
2023-02-09T10:00:36.382Z,16.60
2023-02-09T10:03:03.695Z,14.98
2023-02-09T10:05:31.956Z,15.25
2023-02-09T10:08:00.178Z,14.93
2023-02-09T10:10:39.204Z,15.25
2023-02-09T10:13:19.053Z,14.32
2023-02-09T10:15:48.019Z,14.65
2023-02-09T10:18:15.860Z,15.50
2023-02-09T10:20:44.407Z,13.88
2023-02-09T10:23:18.518Z,15.05
2023-02-09T10:25:50.006Z,15.20
2023-02-09T10:28:23.890Z,15.15
2023-02-09T10:30:57.137Z,14.52
2023-02-09T10:33:24.357Z,14.07
2023-02-09T10:35:52.535Z,13.90
2023-02-09T10:38:20.376Z,13.33
2023-02-09T10:40:47.660Z,13.88
2023-02-09T10:43:28.479Z,14.48
2023-02-09T10:45:56.760Z,13.93
2023-02-09T10:48:24.624Z,13.25
2023-02-09T10:51:01.576Z,14.30
2023-02-09T10:53:35.859Z,13.13
2023-02-09T10:56:22.628Z,13.75
2023-02-09T10:58:53.607Z,13.85
2023-02-09T11:01:22.893Z,13.65
2023-02-09T11:04:19.713Z,12.85
2023-02-09T11:06:52.923Z,14.38
2023-02-09T11:09:21.097Z,13.43
2023-02-09T11:11:48.249Z,13.52
2023-02-09T11:14:18.469Z,13.77
2023-02-09T11:17:11.974Z,14.63
2023-02-09T11:19:49.506Z,13.65
2023-02-09T11:22:31.965Z,13.80
2023-02-09T11:25:18.178Z,12.73
2023-02-09T11:27:53.239Z,12.32
2023-02-09T11:30:39.432Z,13.23
2023-02-09T11:33:25.112Z,13.23
2023-02-09T11:35:55.169Z,13.37
2023-02-09T11:38:26.195Z,13.27
2023-02-09T11:40:54.818Z,13.77
2023-02-09T11:43:25.663Z,12.32
2023-02-09T11:45:53.316Z,12.27
2023-02-09T11:48:21.466Z,12.98
2023-02-09T11:50:54.721Z,13.00
2023-02-09T11:53:30.950Z,13.00
2023-02-09T11:56:01.458Z,12.18
2023-02-09T11:58:31.605Z,12.05
2023-02-09T12:01:14.717Z,12.23
2023-02-09T12:03:43.729Z,12.43
2023-02-09T12:06:10.990Z,12.63
2023-02-09T12:08:46.167Z,12.97
2023-02-09T12:11:16.127Z,12.40
2023-02-09T12:13:52.400Z,12.13
2023-02-09T12:16:23.191Z,13.15
2023-02-09T12:18:50.389Z,12.77
2023-02-09T12:21:26.805Z,11.43
2023-02-09T12:23:53.988Z,13.75
2023-02-09T12:26:33.353Z,12.63
2023-02-09T12:29:03.750Z,12.15
2023-02-09T12:31:31.687Z,12.40
2023-02-09T12:33:58.940Z,12.48
2023-02-09T12:36:34.950Z,12.27
2023-02-09T12:39:23.824Z,12.38
2023-02-09T12:41:51.246Z,12.40
2023-02-09T12:44:21.433Z,12.27
2023-02-09T12:46:56.754Z,12.80
2023-02-09T12:49:31.018Z,12.57
2023-02-09T12:52:01.372Z,12.40
2023-02-09T12:54:39.460Z,13.95
2023-02-09T12:57:15.737Z,13.23
2023-02-09T12:59:52.100Z,11.90
2023-02-09T13:02:37.779Z,13.15
2023-02-09T13:05:06.389Z,11.93
2023-02-09T13:07:33.541Z,12.32
2023-02-09T13:10:21.561Z,13.15
2023-02-09T13:12:59.515Z,12.52
2023-02-09T13:15:27.427Z,12.77
2023-02-09T13:18:00.623Z,12.82
2023-02-09T13:20:30.612Z,12.18
2023-02-09T13:23:16.473Z,12.35
2023-02-09T13:25:44.381Z,11.75
2023-02-09T13:28:18.732Z,11.37
2023-02-09T13:30:46.333Z,12.65
2023-02-09T13:33:25.750Z,12.13
2023-02-09T13:35:55.702Z,12.60
2023-02-09T13:38:23.151Z,12.90
2023-02-09T13:40:50.599Z,11.75
2023-02-09T13:43:25.137Z,12.25
2023-02-09T13:45:53.178Z,11.57
2023-02-09T13:48:24.404Z,13.07
2023-02-09T13:50:52.173Z,30.70
2023-02-09T13:53:19.860Z,24.80
2023-02-09T13:55:47.669Z,28.70
2023-02-09T13:58:16.434Z,109.50
2023-02-09T14:00:44.817Z,73.35
2023-02-09T14:03:24.974Z,23.15
2023-02-09T14:05:57.789Z,24.08
2023-02-09T14:08:24.978Z,15.95
2023-02-09T14:11:15.250Z,13.95
2023-02-09T14:13:43.482Z,16.65
2023-02-09T14:16:12.593Z,16.95
2023-02-09T14:19:12.445Z,11.77
2023-02-09T14:21:40.215Z,13.57
2023-02-09T14:24:08.623Z,9.95
2023-02-09T14:26:36.506Z,11.87
2023-02-09T14:29:18.264Z,11.73
2023-02-09T14:31:49.658Z,11.20
2023-02-09T14:34:26.084Z,11.18
2023-02-09T14:36:56.147Z,9.98
2023-02-09T14:39:23.497Z,10.35
2023-02-09T14:42:09.130Z,10.45
2023-02-09T14:44:44.575Z,11.35
2023-02-09T14:47:27.014Z,10.67
2023-02-09T14:49:54.141Z,10.77
2023-02-09T14:52:23.735Z,11.02
2023-02-09T14:54:51.304Z,10.88
2023-02-09T14:57:20.215Z,10.20
2023-02-09T14:59:47.377Z,9.68
2023-02-09T15:02:19.285Z,10.15
2023-02-09T15:04:46.531Z,10.27
2023-02-09T15:07:15.463Z,10.55
2023-02-09T15:09:43.004Z,10.00
2023-02-09T15:12:11.114Z,9.85
2023-02-09T15:14:47.414Z,10.17
2023-02-09T15:17:18.660Z,10.18
2023-02-09T15:19:46.110Z,10.52
2023-02-09T15:22:15.039Z,10.40
2023-02-09T15:24:45.990Z,10.47
2023-02-09T15:27:22.419Z,10.07
2023-02-09T15:29:49.558Z,11.10
2023-02-09T15:32:17.804Z,10.75
2023-02-09T15:34:45.001Z,10.82
2023-02-09T15:37:20.221Z,9.98
2023-02-09T15:39:48.396Z,10.50
2023-02-09T15:42:34.646Z,10.63
2023-02-09T15:45:32.590Z,11.02
2023-02-09T15:47:59.896Z,11.23
2023-02-09T15:50:28.523Z,10.13
2023-02-09T15:52:57.583Z,10.65
2023-02-09T15:55:24.966Z,11.15
2023-02-09T15:57:52.403Z,11.52
2023-02-09T16:00:24.862Z,10.35
2023-02-09T16:02:55.750Z,11.07
2023-02-09T16:05:22.924Z,10.27
2023-02-09T16:07:50.185Z,10.73
2023-02-09T16:10:20.102Z,10.60
2023-02-09T16:12:47.250Z,10.50
2023-02-09T16:15:15.481Z,11.00
2023-02-09T16:17:42.675Z,10.68
2023-02-09T16:20:10.162Z,9.70
2023-02-09T16:22:37.441Z,10.25
2023-02-09T16:25:04.713Z,10.68
2023-02-09T16:27:32.098Z,10.52
2023-02-09T16:29:59.412Z,10.40
2023-02-09T16:32:28.447Z,11.60
2023-02-09T16:35:04.555Z,11.48
2023-02-09T16:37:38.213Z,9.95
2023-02-09T16:40:15.956Z,11.27
2023-02-09T16:42:43.415Z,10.38
2023-02-09T16:45:13.949Z,10.45
2023-02-09T16:47:45.500Z,10.98
2023-02-09T16:50:16.672Z,11.17
2023-02-09T16:52:43.980Z,9.95
2023-02-09T16:55:13.234Z,11.37
2023-02-09T16:57:40.512Z,10.37
2023-02-09T17:00:07.955Z,10.25
2023-02-09T17:02:35.222Z,10.57
2023-02-09T17:05:02.982Z,10.00
2023-02-09T17:07:37.508Z,9.30
2023-02-09T17:10:16.611Z,9.70
2023-02-09T17:12:43.881Z,10.15
2023-02-09T17:15:28.391Z,10.15
2023-02-09T17:17:57.385Z,10.00
2023-02-09T17:20:25.086Z,9.80
2023-02-09T17:22:53.013Z,10.30
2023-02-09T17:25:20.940Z,9.80
2023-02-09T17:27:48.109Z,9.60
2023-02-09T17:30:18.780Z,10.63
2023-02-09T17:32:46.970Z,11.32
2023-02-09T17:35:15.162Z,10.10
2023-02-09T17:37:42.585Z,10.43
2023-02-09T17:40:13.530Z,9.93
2023-02-09T17:42:40.675Z,10.27
2023-02-09T17:45:14.810Z,10.10
2023-02-09T17:47:41.936Z,9.57
2023-02-09T17:50:09.309Z,9.70
2023-02-09T17:52:36.430Z,9.80
2023-02-09T17:55:03.599Z,9.68
2023-02-09T17:57:30.765Z,9.77
2023-02-09T17:59:57.950Z,10.13
2023-02-09T18:02:25.103Z,9.95
2023-02-09T18:04:52.294Z,9.85
2023-02-09T18:07:20.863Z,9.75
2023-02-09T18:09:48.092Z,9.50
2023-02-09T18:12:22.369Z,10.80
2023-02-09T18:14:49.513Z,10.47
2023-02-09T18:17:16.744Z,10.38
2023-02-09T18:19:43.927Z,11.57
2023-02-09T18:22:12.812Z,10.57
2023-02-09T18:24:40.519Z,12.75
2023-02-09T18:27:08.734Z,9.35
2023-02-09T18:29:35.941Z,10.45
2023-02-09T18:32:03.196Z,9.88
2023-02-09T18:34:30.431Z,9.95
2023-02-09T18:36:57.579Z,10.10
2023-02-09T18:39:24.770Z,10.43
2023-02-09T18:41:55.103Z,10.18
2023-02-09T18:44:29.347Z,10.35
2023-02-09T18:46:57.329Z,11.43
2023-02-09T18:49:24.536Z,10.02
2023-02-09T18:51:52.288Z,10.25
2023-02-09T18:54:19.517Z,10.80
2023-02-09T18:56:46.684Z,10.73
2023-02-09T18:59:14.005Z,10.82
2023-02-09T19:01:41.303Z,11.30
2023-02-09T19:04:08.527Z,11.73
2023-02-09T19:06:36.130Z,11.02
2023-02-09T19:09:03.411Z,11.32
2023-02-09T19:11:30.694Z,10.63
2023-02-09T19:14:16.431Z,10.73
2023-02-09T19:16:43.608Z,11.45
2023-02-09T19:19:12.476Z,11.27
2023-02-09T19:21:39.702Z,12.23
2023-02-09T19:24:06.992Z,12.63
2023-02-09T19:26:34.164Z,12.30
2023-02-09T19:29:01.375Z,10.63
2023-02-09T19:31:28.599Z,10.73
2023-02-09T19:33:58.607Z,10.50
2023-02-09T19:36:27.901Z,11.38
2023-02-09T19:38:55.725Z,10.43
2023-02-09T19:41:23.694Z,10.82
2023-02-09T19:43:54.345Z,11.80
2023-02-09T19:46:21.631Z,11.18
2023-02-09T19:48:48.824Z,11.98
2023-02-09T19:51:15.975Z,12.25
2023-02-09T19:53:43.224Z,12.57
2023-02-09T19:56:14.316Z,12.00
2023-02-09T19:58:41.507Z,12.05
2023-02-09T20:01:09.197Z,13.55
2023-02-09T20:03:36.772Z,17.33
2023-02-09T20:06:11.069Z,14.37
2023-02-09T20:08:38.334Z,13.35
2023-02-09T20:11:06.389Z,13.80
2023-02-09T20:13:33.568Z,17.75
2023-02-09T20:16:00.745Z,14.15
2023-02-09T20:18:27.891Z,21.98
2023-02-09T20:20:55.138Z,15.30
2023-02-09T20:23:23.782Z,17.77
2023-02-09T20:25:51.024Z,19.60
2023-02-09T20:28:18.298Z,14.80
2023-02-09T20:30:46.235Z,16.05
2023-02-09T20:33:14.524Z,14.90
2023-02-09T20:35:42.012Z,16.10
2023-02-09T20:38:10.252Z,19.08
2023-02-09T20:40:37.647Z,15.82
2023-02-09T20:43:23.205Z,17.55
2023-02-09T20:46:09.106Z,17.50
2023-02-09T20:48:36.330Z,16.98
2023-02-09T20:51:04.785Z,15.18
2023-02-09T20:53:32.716Z,15.47
2023-02-09T20:56:00.014Z,15.75
2023-02-09T20:58:29.637Z,16.20
2023-02-09T21:00:57.119Z,16.50
2023-02-09T21:03:24.589Z,15.43
2023-02-09T21:05:52.034Z,15.57
2023-02-09T21:08:20.391Z,16.13
2023-02-09T21:10:48.174Z,15.90
2023-02-09T21:13:15.644Z,14.85
2023-02-09T21:15:45.193Z,15.27
2023-02-09T21:18:12.643Z,16.05
2023-02-09T21:20:40.736Z,16.20
2023-02-09T21:23:09.442Z,17.60
2023-02-09T21:25:37.146Z,16.45
2023-02-09T21:28:05.896Z,15.27
2023-02-09T21:30:33.594Z,15.95
2023-02-09T21:33:00.851Z,14.93
2023-02-09T21:35:28.545Z,15.70
2023-02-09T21:37:56.627Z,16.70
2023-02-09T21:40:24.856Z,15.43
2023-02-09T21:42:52.785Z,16.05
2023-02-09T21:45:20.066Z,16.98
2023-02-09T21:47:47.311Z,16.75
2023-02-09T21:50:14.750Z,16.77
2023-02-09T21:52:41.992Z,17.10
2023-02-09T21:55:09.385Z,17.65
2023-02-09T21:57:39.379Z,18.20
2023-02-09T22:00:09.152Z,19.27
2023-02-09T22:02:36.373Z,19.95
2023-02-09T22:05:03.764Z,17.90
2023-02-09T22:07:31.053Z,19.55
2023-02-09T22:09:58.256Z,19.30
2023-02-09T22:12:25.596Z,20.73
2023-02-09T22:14:52.824Z,20.15
2023-02-09T22:17:19.960Z,19.17
2023-02-09T22:19:47.190Z,20.30
2023-02-09T22:22:14.367Z,21.08
2023-02-09T22:24:41.581Z,20.35
2023-02-09T22:27:08.857Z,21.63
2023-02-09T22:29:36.122Z,21.30
2023-02-09T22:32:03.378Z,22.02
2023-02-09T22:34:30.556Z,21.35
2023-02-09T22:36:57.732Z,21.48
2023-02-09T22:39:24.907Z,22.48
2023-02-09T22:41:52.061Z,21.73
2023-02-09T22:44:19.352Z,22.25
2023-02-09T22:46:46.592Z,22.80
2023-02-09T22:49:18.152Z,23.80
2023-02-09T22:51:45.574Z,23.90
2023-02-09T22:54:16.330Z,24.03
2023-02-09T22:56:43.502Z,23.75
2023-02-09T22:59:11.468Z,23.33
2023-02-09T23:01:38.717Z,24.42
2023-02-09T23:04:06.120Z,24.08
2023-02-09T23:06:33.305Z,23.27
2023-02-09T23:09:01.919Z,26.10
2023-02-09T23:11:29.475Z,23.88
2023-02-09T23:14:09.623Z,24.40
2023-02-09T23:16:37.516Z,23.80
2023-02-09T23:19:05.522Z,24.33
2023-02-09T23:21:33.608Z,25.30
2023-02-09T23:24:00.769Z,23.65
2023-02-09T23:26:28.236Z,24.00
2023-02-09T23:28:57.134Z,23.83
2023-02-09T23:31:24.492Z,23.20
2023-02-09T23:33:51.708Z,23.73
2023-02-09T23:36:19.844Z,23.42
2023-02-09T23:38:47.110Z,24.57
2023-02-09T23:41:15.149Z,23.77
2023-02-09T23:43:42.425Z,23.27
2023-02-09T23:46:11.748Z,22.75
2023-02-09T23:48:39.045Z,23.53
2023-02-09T23:51:07.112Z,22.40
2023-02-09T23:53:34.454Z,22.80
2023-02-09T23:56:03.850Z,23.23
2023-02-09T23:58:31.977Z,22.40
